Aviation Digital Data Service (ADDS)

Output produced by TAFs form (1023 UTC 23 February 2018)
found at http://www.aviationweather.gov/adds/tafs/
 
KPOU 230546Z 2306/2406 04003KT P6SM BKN006 OVC040 
     TEMPO 2306/2310 SCT006 OVC040 
     FM231300 16004KT P6SM VCSH SCT015 BKN150 
     FM231600 16006KT 5SM -RA BR OVC035 
     FM231800 15006KT 3SM -RA BR OVC020 
     FM232100 16006KT 1SM -RA BR OVC015 
     FM240000 18012KT 6SM BR VCSH OVC015